createdAt,value
2023-06-30T00:00:42.061Z,0.00
2023-06-30T00:01:42.093Z,0.00
2023-06-30T00:02:42.167Z,0.00
2023-06-30T00:03:42.052Z,0.00
2023-06-30T00:04:41.918Z,0.00
2023-06-30T00:05:41.860Z,0.00
2023-06-30T00:06:41.821Z,0.00
2023-06-30T00:07:41.854Z,0.00
2023-06-30T00:08:41.752Z,0.00
2023-06-30T00:09:41.744Z,0.00
2023-06-30T00:10:41.661Z,0.00
2023-06-30T00:11:41.619Z,0.00
2023-06-30T00:12:41.597Z,0.00
2023-06-30T00:13:41.532Z,0.00
2023-06-30T00:14:41.511Z,0.00
2023-06-30T00:15:41.544Z,0.00
2023-06-30T00:16:41.414Z,0.00
2023-06-30T00:17:41.391Z,0.00
2023-06-30T00:18:41.333Z,0.00
2023-06-30T00:19:41.295Z,0.00
2023-06-30T00:20:41.257Z,0.00
2023-06-30T00:21:41.244Z,0.00
2023-06-30T00:22:41.174Z,0.00
2023-06-30T00:23:41.136Z,0.00
2023-06-30T00:24:41.091Z,0.00
2023-06-30T00:25:41.053Z,0.00
2023-06-30T00:26:41.021Z,0.00
2023-06-30T00:27:41.012Z,0.00
2023-06-30T00:28:40.934Z,0.00
2023-06-30T00:29:40.898Z,0.00
2023-06-30T00:30:40.858Z,0.00
2023-06-30T00:31:40.876Z,0.00
2023-06-30T00:32:40.825Z,0.00
2023-06-30T00:33:40.742Z,0.00
2023-06-30T00:34:40.695Z,0.00
2023-06-30T00:35:40.653Z,0.00
2023-06-30T00:36:40.607Z,0.00
2023-06-30T00:37:40.586Z,0.00
2023-06-30T00:38:40.597Z,0.00
2023-06-30T00:39:40.521Z,0.00
2023-06-30T00:40:40.457Z,0.00
2023-06-30T00:41:40.406Z,0.00
2023-06-30T00:42:40.370Z,0.00
2023-06-30T00:43:40.325Z,0.00
2023-06-30T00:44:40.286Z,0.00
2023-06-30T00:45:40.264Z,0.00
2023-06-30T00:46:40.240Z,0.00
2023-06-30T00:47:40.201Z,0.00
2023-06-30T00:48:40.140Z,0.00
2023-06-30T00:49:40.080Z,0.00
2023-06-30T00:50:40.041Z,0.00
2023-06-30T00:51:40.175Z,0.00
2023-06-30T00:52:39.968Z,0.00
2023-06-30T00:53:39.928Z,0.00
2023-06-30T00:54:39.883Z,0.00
2023-06-30T00:55:39.840Z,0.00
2023-06-30T00:56:39.801Z,0.00
2023-06-30T00:57:39.778Z,0.00
2023-06-30T00:58:39.718Z,0.00
2023-06-30T00:59:39.680Z,0.00
2023-06-30T01:00:39.642Z,0.00
2023-06-30T01:01:39.683Z,0.00
2023-06-30T01:02:39.615Z,0.00
2023-06-30T01:03:39.619Z,0.00
2023-06-30T01:04:39.598Z,0.00
2023-06-30T01:05:39.434Z,0.00
2023-06-30T01:06:39.399Z,0.00
2023-06-30T01:07:39.540Z,0.00
2023-06-30T01:08:39.317Z,0.00
2023-06-30T01:09:39.285Z,0.00
2023-06-30T01:10:39.259Z,0.00
2023-06-30T01:11:39.192Z,0.00
2023-06-30T01:12:39.154Z,0.00
2023-06-30T01:13:39.128Z,0.00
2023-06-30T01:14:39.080Z,0.00
2023-06-30T01:15:39.028Z,0.00
2023-06-30T01:16:39.014Z,0.00
2023-06-30T01:17:38.978Z,0.00
2023-06-30T01:18:38.912Z,0.00
2023-06-30T01:19:38.923Z,0.00
2023-06-30T01:20:38.834Z,0.00
2023-06-30T01:21:38.788Z,0.00
2023-06-30T01:22:38.751Z,0.00
2023-06-30T01:23:38.711Z,0.00
2023-06-30T01:24:38.660Z,0.00
2023-06-30T01:25:38.693Z,0.00
2023-06-30T01:26:38.584Z,0.00
2023-06-30T01:27:38.551Z,0.00
2023-06-30T01:28:38.557Z,0.00
2023-06-30T01:29:38.467Z,0.00
2023-06-30T01:30:38.438Z,0.00
2023-06-30T01:31:38.421Z,0.00
2023-06-30T01:32:38.413Z,0.00
2023-06-30T01:33:38.314Z,0.00
2023-06-30T01:34:38.285Z,0.00
2023-06-30T01:35:38.222Z,0.00
2023-06-30T01:36:38.184Z,0.00
2023-06-30T01:37:38.136Z,0.00
2023-06-30T01:38:38.122Z,0.00
2023-06-30T01:39:38.055Z,0.00
2023-06-30T01:40:38.027Z,0.00
2023-06-30T01:41:37.975Z,0.00
2023-06-30T01:42:37.967Z,0.00
2023-06-30T01:43:37.905Z,0.00
2023-06-30T01:44:37.882Z,0.00
2023-06-30T01:45:37.808Z,0.00
2023-06-30T01:46:37.816Z,0.00
2023-06-30T01:47:37.769Z,0.00
2023-06-30T01:48:37.687Z,0.00
2023-06-30T01:49:37.648Z,0.00
2023-06-30T01:50:37.609Z,0.00
2023-06-30T01:51:37.565Z,0.00
2023-06-30T01:52:37.538Z,0.00
2023-06-30T01:53:37.497Z,0.00
2023-06-30T01:54:37.443Z,0.00
2023-06-30T01:55:37.403Z,0.00
2023-06-30T01:56:37.364Z,0.00
2023-06-30T01:57:37.329Z,0.00
2023-06-30T01:58:37.276Z,0.00
2023-06-30T01:59:37.265Z,0.00
2023-06-30T02:00:37.225Z,0.00
2023-06-30T02:01:37.188Z,0.00
2023-06-30T02:02:37.165Z,0.00
2023-06-30T02:03:37.176Z,0.00
2023-06-30T02:04:37.034Z,0.00
2023-06-30T02:05:37.015Z,0.00
2023-06-30T02:06:36.990Z,0.00
2023-06-30T02:07:37.101Z,0.00
2023-06-30T02:08:36.875Z,0.00
2023-06-30T02:09:47.381Z,0.00
2023-06-30T02:10:36.789Z,0.00
2023-06-30T02:11:36.744Z,0.00
2023-06-30T02:12:36.797Z,0.00
2023-06-30T02:13:36.675Z,0.00
2023-06-30T02:14:36.613Z,0.00
2023-06-30T02:15:36.581Z,0.00
2023-06-30T02:16:36.555Z,0.00
2023-06-30T02:17:36.544Z,0.00
2023-06-30T02:18:36.466Z,0.00
2023-06-30T02:19:36.436Z,0.00
2023-06-30T02:20:36.414Z,0.00
2023-06-30T02:21:36.346Z,0.00
2023-06-30T02:22:36.291Z,0.00
2023-06-30T02:23:36.254Z,0.00
2023-06-30T02:24:36.213Z,0.00
2023-06-30T02:25:36.168Z,0.00
2023-06-30T02:26:36.299Z,0.00
2023-06-30T02:27:36.090Z,0.00
2023-06-30T02:28:36.044Z,0.00
2023-06-30T02:29:36.005Z,0.00
2023-06-30T02:30:35.969Z,0.00
2023-06-30T02:31:35.965Z,0.00
2023-06-30T02:32:35.929Z,0.00
2023-06-30T02:33:35.841Z,0.00
2023-06-30T02:34:35.802Z,0.00
2023-06-30T02:35:35.824Z,0.00
2023-06-30T02:36:35.719Z,0.00
2023-06-30T02:37:35.682Z,0.00
2023-06-30T02:38:35.659Z,0.00
2023-06-30T02:39:35.618Z,0.00
2023-06-30T02:40:35.558Z,0.00
2023-06-30T02:41:35.516Z,0.00
2023-06-30T02:42:35.482Z,0.00
2023-06-30T02:43:35.433Z,0.00
2023-06-30T02:44:35.402Z,0.00
2023-06-30T02:45:35.372Z,0.00
2023-06-30T02:46:35.321Z,0.00
2023-06-30T02:47:35.315Z,0.00
2023-06-30T02:48:35.232Z,0.00
2023-06-30T02:49:35.189Z,0.00
2023-06-30T02:50:35.191Z,0.00
2023-06-30T02:51:35.124Z,0.00
2023-06-30T02:52:35.068Z,0.00
2023-06-30T02:53:35.057Z,0.00
2023-06-30T02:54:34.984Z,0.00
2023-06-30T02:55:37.254Z,0.00
2023-06-30T02:56:34.903Z,0.00
2023-06-30T02:57:35.039Z,0.00
2023-06-30T02:58:34.848Z,0.00
2023-06-30T02:59:34.784Z,0.00
2023-06-30T03:00:34.738Z,0.00
2023-06-30T03:01:34.788Z,4.00
2023-06-30T03:02:34.867Z,4.00
2023-06-30T03:03:34.753Z,4.00
2023-06-30T03:04:34.614Z,4.00
2023-06-30T03:05:34.533Z,4.00
2023-06-30T03:06:34.496Z,8.00
2023-06-30T03:07:34.548Z,8.00
2023-06-30T03:08:34.413Z,8.00
2023-06-30T03:09:34.464Z,8.00
2023-06-30T03:10:34.349Z,8.00
2023-06-30T03:11:34.312Z,12.00
2023-06-30T03:12:34.259Z,12.00
2023-06-30T03:13:34.212Z,12.00
2023-06-30T03:14:34.167Z,16.00
2023-06-30T03:15:34.136Z,20.00
2023-06-30T03:16:34.130Z,28.00
2023-06-30T03:17:34.077Z,28.00
2023-06-30T03:18:34.010Z,32.00
2023-06-30T03:19:33.964Z,36.00
2023-06-30T03:20:33.925Z,40.00
2023-06-30T03:21:33.884Z,44.00
2023-06-30T03:22:33.856Z,48.00
2023-06-30T03:23:33.811Z,52.00
2023-06-30T03:24:33.761Z,60.00
2023-06-30T03:25:33.722Z,68.00
2023-06-30T03:26:33.677Z,80.00
2023-06-30T03:27:33.646Z,92.00
2023-06-30T03:28:33.618Z,104.00
2023-06-30T03:29:33.588Z,116.00
2023-06-30T03:30:33.558Z,120.00
2023-06-30T03:31:33.578Z,128.00
2023-06-30T03:32:33.578Z,132.00
2023-06-30T03:33:33.392Z,136.00
2023-06-30T03:34:33.350Z,144.00
2023-06-30T03:35:33.373Z,156.00
2023-06-30T03:36:33.281Z,168.00
2023-06-30T03:37:33.228Z,184.00
2023-06-30T03:38:33.188Z,200.00
2023-06-30T03:39:33.151Z,216.00
2023-06-30T03:40:33.210Z,232.00
2023-06-30T03:41:33.064Z,244.00
2023-06-30T03:42:33.023Z,248.00
2023-06-30T03:43:32.983Z,232.00
2023-06-30T03:44:32.943Z,200.00
2023-06-30T03:45:32.909Z,208.00
2023-06-30T03:46:32.932Z,252.00
2023-06-30T03:47:32.863Z,240.00
2023-06-30T03:48:32.777Z,364.00
2023-06-30T03:49:32.756Z,416.00
2023-06-30T03:50:32.705Z,428.00
2023-06-30T03:51:32.655Z,444.00
2023-06-30T03:52:32.614Z,456.00
2023-06-30T03:53:32.574Z,472.00
2023-06-30T03:54:32.532Z,488.00
2023-06-30T03:55:32.531Z,496.00
2023-06-30T03:56:32.453Z,496.00
2023-06-30T03:57:32.411Z,500.00
2023-06-30T03:58:32.401Z,500.00
2023-06-30T03:59:32.327Z,496.00
2023-06-30T04:00:32.290Z,488.00
2023-06-30T04:01:32.270Z,484.00
2023-06-30T04:02:32.275Z,476.00
2023-06-30T04:03:32.332Z,468.00
2023-06-30T04:04:32.288Z,460.00
2023-06-30T04:05:32.129Z,456.00
2023-06-30T04:06:32.056Z,468.00
2023-06-30T04:07:32.120Z,496.00
2023-06-30T04:08:32.054Z,528.00
2023-06-30T04:09:31.923Z,556.00
2023-06-30T04:10:31.879Z,584.00
2023-06-30T04:11:31.851Z,604.00
2023-06-30T04:12:31.805Z,624.00
2023-06-30T04:13:31.759Z,644.00
2023-06-30T04:14:31.733Z,668.00
2023-06-30T04:15:31.680Z,696.00
2023-06-30T04:16:31.664Z,744.00
2023-06-30T04:17:31.612Z,804.00
2023-06-30T04:18:31.588Z,876.00
2023-06-30T04:19:31.516Z,956.00
2023-06-30T04:20:31.474Z,1036.00
2023-06-30T04:21:31.436Z,1120.00
2023-06-30T04:22:31.415Z,1208.00
2023-06-30T04:23:31.356Z,1296.00
2023-06-30T04:24:31.337Z,1360.00
2023-06-30T04:25:31.269Z,1440.00
2023-06-30T04:26:31.230Z,1536.00
2023-06-30T04:27:31.192Z,1640.00
2023-06-30T04:28:31.148Z,1756.00
2023-06-30T04:29:31.109Z,1812.00
2023-06-30T04:30:31.107Z,1844.00
2023-06-30T04:31:31.094Z,1836.00
2023-06-30T04:32:31.015Z,1800.00
2023-06-30T04:33:30.962Z,1788.00
2023-06-30T04:34:30.905Z,1784.00
2023-06-30T04:35:30.881Z,1984.00
2023-06-30T04:36:30.856Z,2020.00
2023-06-30T04:37:30.781Z,2092.00
2023-06-30T04:38:30.769Z,2064.00
2023-06-30T04:39:30.709Z,2016.00
2023-06-30T04:40:30.669Z,2108.00
2023-06-30T04:41:30.624Z,2044.00
2023-06-30T04:42:30.596Z,1968.00
2023-06-30T04:43:30.556Z,2092.00
2023-06-30T04:44:30.501Z,2308.00
2023-06-30T04:45:30.462Z,2468.00
2023-06-30T04:46:30.454Z,2612.00
2023-06-30T04:47:30.439Z,2648.00
2023-06-30T04:48:30.354Z,2756.00
2023-06-30T04:49:30.304Z,3060.00
2023-06-30T04:50:30.266Z,3112.00
2023-06-30T04:51:30.216Z,3148.00
2023-06-30T04:52:30.202Z,3156.00
2023-06-30T04:53:30.146Z,2916.00
2023-06-30T04:54:30.114Z,3164.00
2023-06-30T04:55:30.058Z,3032.00
2023-06-30T04:56:30.023Z,2752.00
2023-06-30T04:57:29.984Z,2596.00
2023-06-30T04:58:29.945Z,2328.00
2023-06-30T04:59:29.895Z,2020.00
2023-06-30T05:00:29.907Z,1908.00
2023-06-30T05:01:29.915Z,1916.00
2023-06-30T05:02:29.793Z,1908.00
2023-06-30T05:03:29.769Z,1908.00
2023-06-30T05:04:29.689Z,1900.00
2023-06-30T05:05:29.651Z,1944.00
2023-06-30T05:06:29.619Z,1964.00
2023-06-30T05:07:29.604Z,1984.00
2023-06-30T05:08:29.527Z,2052.00
2023-06-30T05:09:29.503Z,2148.00
2023-06-30T05:10:29.441Z,2284.00
2023-06-30T05:11:29.407Z,2436.00
2023-06-30T05:12:29.363Z,2616.00
2023-06-30T05:13:29.337Z,2732.00
2023-06-30T05:14:29.274Z,2812.00
2023-06-30T05:15:29.243Z,2828.00
2023-06-30T05:16:29.538Z,2788.00
2023-06-30T05:17:29.285Z,2720.00
2023-06-30T05:18:29.111Z,2636.00
2023-06-30T05:19:29.252Z,2600.00
2023-06-30T05:20:29.030Z,2588.00
2023-06-30T05:21:28.988Z,2672.00
2023-06-30T05:22:28.949Z,2804.00
2023-06-30T05:23:28.917Z,3068.00
2023-06-30T05:24:28.866Z,3344.00
2023-06-30T05:25:28.863Z,3652.00
2023-06-30T05:26:28.829Z,3912.00
2023-06-30T05:27:28.759Z,4080.00
2023-06-30T05:28:28.703Z,4228.00
2023-06-30T05:29:29.495Z,4352.00
2023-06-30T05:30:28.621Z,4472.00
2023-06-30T05:31:28.714Z,4528.00
2023-06-30T05:32:28.597Z,4568.00
2023-06-30T05:33:28.494Z,4556.00
2023-06-30T05:34:28.540Z,4472.00
2023-06-30T05:35:28.423Z,4484.00
2023-06-30T05:36:28.378Z,4364.00
2023-06-30T05:37:28.341Z,4420.00
2023-06-30T05:38:28.290Z,4452.00
2023-06-30T05:39:28.248Z,4504.00
2023-06-30T05:40:28.243Z,4748.00
2023-06-30T05:41:28.169Z,5016.00
2023-06-30T05:42:28.119Z,5236.00
2023-06-30T05:43:28.083Z,5316.00
2023-06-30T05:44:28.093Z,5280.00
2023-06-30T05:45:28.007Z,5188.00
2023-06-30T05:46:28.019Z,5076.00
2023-06-30T05:47:27.946Z,5008.00
2023-06-30T05:48:27.876Z,4876.00
2023-06-30T05:49:27.834Z,4664.00
2023-06-30T05:50:27.814Z,4392.00
2023-06-30T05:51:27.754Z,4144.00
2023-06-30T05:52:27.711Z,3968.00
2023-06-30T05:53:27.668Z,3868.00
2023-06-30T05:54:27.627Z,3848.00
2023-06-30T05:55:27.905Z,3912.00
2023-06-30T05:56:27.573Z,4060.00
2023-06-30T05:57:27.507Z,4288.00
2023-06-30T05:58:27.464Z,4568.00
2023-06-30T05:59:27.424Z,4836.00
2023-06-30T06:03:47.576Z,5648.00
2023-06-30T06:04:47.241Z,6000.00
2023-06-30T06:05:47.760Z,6432.00
2023-06-30T06:06:46.933Z,6872.00
2023-06-30T06:07:46.910Z,7216.00
2023-06-30T06:08:47.034Z,7420.00
2023-06-30T06:09:46.878Z,7560.00
2023-06-30T06:10:46.841Z,7728.00
2023-06-30T06:11:46.741Z,7904.00
2023-06-30T06:12:48.921Z,8064.00
2023-06-30T06:13:47.067Z,8384.00
2023-06-30T06:14:46.600Z,8720.00
2023-06-30T06:15:46.968Z,8784.00
2023-06-30T06:16:46.565Z,8524.00
2023-06-30T06:17:46.711Z,7952.00
2023-06-30T06:18:47.887Z,7412.00
2023-06-30T06:19:46.433Z,6952.00
2023-06-30T06:20:47.533Z,6516.00
2023-06-30T06:21:46.313Z,6172.00
2023-06-30T06:22:46.531Z,5936.00
2023-06-30T06:23:46.222Z,5812.00
2023-06-30T06:24:46.338Z,5788.00
2023-06-30T06:25:47.706Z,5996.00
2023-06-30T06:26:46.343Z,6396.00
2023-06-30T06:27:46.088Z,6956.00
2023-06-30T06:28:46.171Z,7552.00
2023-06-30T06:29:45.980Z,8164.00
2023-06-30T06:30:46.224Z,8776.00
2023-06-30T06:31:45.969Z,9004.00
2023-06-30T06:32:45.924Z,9064.00
2023-06-30T06:33:47.418Z,8796.00
2023-06-30T06:34:45.791Z,8440.00
2023-06-30T06:35:46.220Z,8220.00
2023-06-30T06:36:45.695Z,7952.00
2023-06-30T06:37:45.860Z,7884.00
2023-06-30T06:38:45.660Z,8008.00
2023-06-30T06:39:45.835Z,8516.00
2023-06-30T06:40:45.529Z,9192.00
2023-06-30T06:41:45.639Z,10092.00
2023-06-30T06:42:45.445Z,11024.00
2023-06-30T06:43:45.408Z,11180.00
2023-06-30T06:44:45.398Z,10744.00
2023-06-30T06:45:45.953Z,10600.00
2023-06-30T06:46:45.344Z,10780.00
2023-06-30T06:47:47.574Z,10620.00
2023-06-30T06:48:45.248Z,10164.00
2023-06-30T06:49:47.038Z,9792.00
2023-06-30T06:50:45.297Z,9520.00
2023-06-30T06:51:45.108Z,9204.00
2023-06-30T06:52:45.110Z,8964.00
2023-06-30T06:53:45.250Z,8856.00
2023-06-30T06:54:45.121Z,8828.00
2023-06-30T06:55:45.204Z,8824.00
2023-06-30T06:56:45.143Z,8828.00
2023-06-30T06:57:44.863Z,8784.00
2023-06-30T06:58:44.948Z,8752.00
2023-06-30T06:59:44.837Z,8604.00
2023-06-30T07:00:44.971Z,8372.00
2023-06-30T07:01:44.785Z,8196.00
2023-06-30T07:02:45.833Z,8336.00
2023-06-30T07:03:44.667Z,8400.00
2023-06-30T07:04:44.877Z,8392.00
2023-06-30T07:05:45.053Z,8640.00
2023-06-30T07:06:44.596Z,9128.00
2023-06-30T07:07:46.742Z,9532.00
2023-06-30T07:08:44.394Z,9860.00
2023-06-30T07:09:44.617Z,10108.00
2023-06-30T07:10:44.306Z,10572.00
2023-06-30T07:11:46.878Z,11028.00
2023-06-30T07:12:44.225Z,11360.00
2023-06-30T07:13:44.190Z,11656.00
2023-06-30T07:14:47.299Z,11760.00
2023-06-30T07:15:46.589Z,11728.00
2023-06-30T07:16:44.153Z,11596.00
2023-06-30T07:17:45.328Z,11368.00
2023-06-30T07:18:44.217Z,11016.00
2023-06-30T07:19:43.951Z,10644.00
2023-06-30T07:20:43.895Z,10232.00
2023-06-30T07:21:44.091Z,9824.00
2023-06-30T07:22:43.827Z,9696.00
2023-06-30T07:23:44.933Z,9824.00
2023-06-30T07:24:44.261Z,10032.00
2023-06-30T07:25:43.830Z,10272.00
2023-06-30T07:26:43.668Z,10584.00
2023-06-30T07:27:43.733Z,10876.00
2023-06-30T07:28:43.598Z,11132.00
2023-06-30T07:29:43.946Z,11536.00
2023-06-30T07:30:43.538Z,11904.00
2023-06-30T07:31:43.464Z,12092.00
2023-06-30T07:32:44.855Z,12084.00
2023-06-30T07:33:43.370Z,11908.00
2023-06-30T07:34:43.572Z,11796.00
2023-06-30T07:35:43.941Z,11800.00
2023-06-30T07:36:44.428Z,11676.00
2023-06-30T07:37:43.395Z,11384.00
2023-06-30T07:38:43.169Z,11140.00
2023-06-30T07:39:43.402Z,10972.00
2023-06-30T07:41:43.229Z,11016.00
2023-06-30T07:42:43.272Z,10956.00
2023-06-30T07:43:43.038Z,10464.00
2023-06-30T07:44:43.030Z,9660.00
2023-06-30T07:45:43.119Z,8864.00
2023-06-30T07:46:43.058Z,8228.00
2023-06-30T07:47:42.869Z,7840.00
2023-06-30T07:48:44.546Z,7780.00
2023-06-30T07:50:05.410Z,7988.00
2023-06-30T07:50:54.791Z,8220.00
2023-06-30T07:51:42.884Z,8312.00
2023-06-30T07:52:43.973Z,8420.00
2023-06-30T07:53:42.684Z,8628.00
2023-06-30T07:54:42.547Z,9072.00
2023-06-30T07:55:42.802Z,9644.00
2023-06-30T07:56:42.718Z,10216.00
2023-06-30T07:57:42.414Z,10832.00
2023-06-30T07:58:42.516Z,11532.00
2023-06-30T07:59:42.332Z,12292.00
2023-06-30T08:00:42.530Z,13152.00
2023-06-30T08:01:44.640Z,14008.00
2023-06-30T08:02:42.406Z,14768.00
2023-06-30T08:03:42.366Z,15376.00
2023-06-30T08:04:42.468Z,15896.00
2023-06-30T08:05:42.298Z,16316.00
2023-06-30T08:06:42.076Z,16584.00
2023-06-30T08:07:44.297Z,16620.00
2023-06-30T08:08:42.229Z,16516.00
2023-06-30T08:09:42.206Z,16408.00
2023-06-30T08:10:42.368Z,16308.00
2023-06-30T08:11:41.998Z,16068.00
2023-06-30T08:12:42.029Z,15792.00
2023-06-30T08:13:41.780Z,15572.00
2023-06-30T08:14:42.022Z,15400.00
2023-06-30T08:15:41.733Z,15312.00
2023-06-30T08:16:42.912Z,15512.00
2023-06-30T08:17:53.229Z,15916.00
2023-06-30T08:18:51.789Z,16412.00
2023-06-30T08:19:44.800Z,17120.00
2023-06-30T08:20:41.859Z,17376.00
2023-06-30T08:21:41.500Z,17760.00
2023-06-30T08:22:43.997Z,17984.00
2023-06-30T08:23:41.388Z,18080.00
2023-06-30T08:24:41.350Z,18272.00
2023-06-30T08:25:42.711Z,18464.00
2023-06-30T08:26:41.268Z,18560.00
2023-06-30T08:27:41.508Z,18688.00
2023-06-30T08:28:41.605Z,18976.00
2023-06-30T08:29:41.171Z,19456.00
2023-06-30T08:30:41.144Z,20032.00
2023-06-30T08:31:41.329Z,20672.00
2023-06-30T08:32:41.098Z,21440.00
2023-06-30T08:33:42.237Z,22272.00
2023-06-30T08:34:41.200Z,23392.00
2023-06-30T08:35:40.927Z,24544.00
2023-06-30T08:36:40.886Z,25760.00
2023-06-30T08:37:42.024Z,26784.00
2023-06-30T08:38:40.801Z,27360.00
2023-06-30T08:39:40.972Z,27552.00
2023-06-30T08:40:41.101Z,27936.00
2023-06-30T08:41:40.689Z,28736.00
2023-06-30T08:42:40.646Z,29536.00
2023-06-30T08:43:41.825Z,30816.00
2023-06-30T08:44:40.611Z,32192.00
2023-06-30T08:45:40.826Z,33344.00
2023-06-30T08:46:41.737Z,33696.00
2023-06-30T08:47:40.500Z,33504.00
2023-06-30T08:48:40.418Z,32832.00
2023-06-30T08:49:40.639Z,31968.00
2023-06-30T08:50:40.343Z,30688.00
2023-06-30T08:51:40.459Z,29504.00
2023-06-30T08:52:40.294Z,28192.00
2023-06-30T08:53:40.531Z,26752.00
2023-06-30T08:54:41.279Z,25376.00
2023-06-30T08:55:40.154Z,24288.00
2023-06-30T08:56:40.290Z,24192.00
2023-06-30T08:57:40.077Z,24896.00
2023-06-30T08:58:40.299Z,25632.00
2023-06-30T08:59:40.004Z,27040.00
2023-06-30T09:00:40.184Z,28256.00
2023-06-30T09:01:40.231Z,29056.00
2023-06-30T09:02:41.302Z,29280.00
2023-06-30T09:03:39.995Z,29504.00
2023-06-30T09:04:41.017Z,29184.00
2023-06-30T09:05:39.780Z,28704.00
2023-06-30T09:06:39.948Z,28928.00
2023-06-30T09:07:39.759Z,29888.00
2023-06-30T09:08:40.795Z,31264.00
2023-06-30T09:09:41.054Z,32672.00
2023-06-30T09:10:40.806Z,33920.00
2023-06-30T09:11:39.572Z,34592.00
2023-06-30T09:12:39.786Z,35456.00
2023-06-30T09:13:39.494Z,36064.00
2023-06-30T09:14:39.602Z,35904.00
2023-06-30T09:15:39.422Z,36512.00
2023-06-30T09:16:40.703Z,37984.00
2023-06-30T09:17:39.361Z,39232.00
2023-06-30T09:18:39.429Z,40192.00
2023-06-30T09:19:39.252Z,41152.00
2023-06-30T09:20:39.298Z,39872.00
2023-06-30T09:21:40.100Z,39808.00
2023-06-30T09:23:00.136Z,39104.00
2023-06-30T09:23:39.103Z,38272.00
2023-06-30T09:24:39.264Z,38720.00
2023-06-30T09:25:39.095Z,40160.00
2023-06-30T09:26:39.339Z,42752.00
2023-06-30T09:27:38.961Z,56064.00
2023-06-30T09:28:40.109Z,51328.00
2023-06-30T09:29:38.884Z,40832.00
2023-06-30T09:30:39.103Z,38912.00
2023-06-30T09:31:38.844Z,37504.00
2023-06-30T09:32:38.878Z,36416.00
2023-06-30T09:33:38.922Z,35712.00
2023-06-30T09:34:38.708Z,34784.00
2023-06-30T09:35:38.933Z,33088.00
2023-06-30T09:36:38.630Z,31488.00
2023-06-30T09:37:38.752Z,30112.00
2023-06-30T09:38:38.796Z,29344.00
2023-06-30T09:39:38.759Z,29216.00
2023-06-30T09:40:38.483Z,28416.00
2023-06-30T09:41:38.576Z,27168.00
2023-06-30T09:42:38.419Z,25632.00
2023-06-30T09:43:38.583Z,24320.00
2023-06-30T09:44:38.403Z,23296.00
2023-06-30T09:45:40.446Z,22528.00
2023-06-30T09:46:38.377Z,22272.00
2023-06-30T09:47:38.419Z,23296.00
2023-06-30T09:48:38.197Z,25184.00
2023-06-30T09:49:38.439Z,26976.00
2023-06-30T09:50:38.156Z,28672.00
2023-06-30T09:51:38.228Z,29760.00
2023-06-30T09:52:38.058Z,29472.00
2023-06-30T09:53:38.257Z,27392.00
2023-06-30T09:54:44.588Z,24896.00
2023-06-30T09:55:37.982Z,23136.00
2023-06-30T09:56:38.068Z,22496.00
2023-06-30T09:57:38.160Z,23360.00
2023-06-30T09:58:37.840Z,24928.00
2023-06-30T09:59:37.803Z,25248.00
2023-06-30T10:00:37.941Z,24256.00
2023-06-30T10:01:37.773Z,21536.00
2023-06-30T10:02:59.066Z,18784.00
2023-06-30T10:03:37.754Z,16624.00
2023-06-30T10:04:38.738Z,15544.00
2023-06-30T10:05:37.592Z,15168.00
2023-06-30T10:06:37.850Z,15108.00
2023-06-30T10:07:37.589Z,14784.00
2023-06-30T10:08:37.519Z,13908.00
2023-06-30T10:09:37.653Z,12900.00
2023-06-30T10:10:37.697Z,11840.00
2023-06-30T10:11:37.366Z,11088.00
2023-06-30T10:12:37.472Z,10712.00
2023-06-30T10:13:37.286Z,10556.00
2023-06-30T10:14:37.692Z,10420.00
2023-06-30T10:15:37.214Z,10392.00
2023-06-30T10:16:37.183Z,10180.00
2023-06-30T10:17:37.227Z,9660.00
2023-06-30T10:18:37.378Z,9140.00
2023-06-30T10:19:37.072Z,8928.00
2023-06-30T10:20:47.091Z,8912.00
2023-06-30T10:21:37.033Z,9064.00
2023-06-30T10:22:37.218Z,8948.00
2023-06-30T10:23:36.913Z,8696.00
2023-06-30T10:24:38.166Z,8612.00
2023-06-30T10:25:36.840Z,8996.00
2023-06-30T10:26:36.829Z,10164.00
2023-06-30T10:27:36.962Z,12096.00
2023-06-30T10:28:39.021Z,14216.00
2023-06-30T10:29:36.689Z,16392.00
2023-06-30T10:30:37.225Z,18176.00
2023-06-30T10:31:36.891Z,19040.00
2023-06-30T10:32:36.825Z,19648.00
2023-06-30T10:33:36.688Z,20096.00
2023-06-30T10:34:36.501Z,20480.00
2023-06-30T10:35:36.461Z,20800.00
2023-06-30T10:36:36.618Z,20672.00
2023-06-30T10:37:36.457Z,19808.00
2023-06-30T10:38:36.633Z,19104.00
2023-06-30T10:39:36.307Z,18752.00
2023-06-30T10:40:36.272Z,18112.00
2023-06-30T10:41:36.279Z,16908.00
2023-06-30T10:42:37.491Z,15896.00
2023-06-30T10:43:36.310Z,15252.00
2023-06-30T10:44:36.269Z,14900.00
2023-06-30T10:45:36.109Z,14656.00
2023-06-30T10:46:36.077Z,14568.00
2023-06-30T10:47:36.102Z,14308.00
2023-06-30T10:48:36.093Z,13748.00
2023-06-30T10:49:35.981Z,12900.00
2023-06-30T10:50:38.359Z,12432.00
2023-06-30T10:51:35.895Z,12184.00
2023-06-30T10:52:35.812Z,11996.00
2023-06-30T10:53:35.932Z,12200.00
2023-06-30T10:54:35.746Z,12392.00
2023-06-30T10:55:35.952Z,12472.00
2023-06-30T10:56:35.694Z,12432.00
2023-06-30T10:57:35.770Z,12760.00
2023-06-30T10:58:35.593Z,13456.00
2023-06-30T10:59:35.775Z,14012.00
2023-06-30T11:00:35.504Z,14400.00
2023-06-30T11:01:35.677Z,14700.00
2023-06-30T11:02:35.925Z,14892.00
2023-06-30T11:03:37.708Z,15312.00
2023-06-30T11:04:35.517Z,15824.00
2023-06-30T11:05:35.517Z,16160.00
2023-06-30T11:06:35.277Z,16604.00
2023-06-30T11:07:35.428Z,17504.00
2023-06-30T11:08:35.208Z,18080.00
2023-06-30T11:09:35.323Z,18624.00
2023-06-30T11:10:35.124Z,19232.00
2023-06-30T11:11:35.147Z,19584.00
2023-06-30T11:12:35.046Z,19680.00
2023-06-30T11:13:35.359Z,19968.00
2023-06-30T11:14:34.967Z,20672.00
2023-06-30T11:15:34.964Z,21696.00
2023-06-30T11:16:34.891Z,22752.00
2023-06-30T11:17:36.097Z,24032.00
2023-06-30T11:18:34.939Z,25152.00
2023-06-30T11:19:35.030Z,25504.00
2023-06-30T11:20:34.743Z,25312.00
2023-06-30T11:21:55.696Z,25504.00
2023-06-30T11:22:34.673Z,26720.00
2023-06-30T11:23:36.044Z,27776.00
2023-06-30T11:24:34.587Z,28256.00
2023-06-30T11:25:34.630Z,28480.00
2023-06-30T11:26:34.513Z,28544.00
2023-06-30T11:27:34.504Z,28256.00
2023-06-30T11:28:34.435Z,27584.00
2023-06-30T11:29:36.504Z,26912.00
2023-06-30T11:30:34.413Z,26368.00
2023-06-30T11:31:35.494Z,26176.00
2023-06-30T11:32:34.324Z,26624.00
2023-06-30T11:33:34.247Z,28064.00
2023-06-30T11:34:34.211Z,30176.00
2023-06-30T11:35:56.608Z,32128.00
2023-06-30T11:36:34.134Z,33216.00
2023-06-30T11:37:55.197Z,33632.00
2023-06-30T11:38:34.065Z,33600.00
2023-06-30T11:39:34.031Z,33696.00
2023-06-30T11:40:33.991Z,33824.00
2023-06-30T11:41:35.357Z,34400.00
2023-06-30T11:42:33.915Z,35552.00
2023-06-30T11:43:33.943Z,37344.00
2023-06-30T11:44:33.850Z,39040.00
2023-06-30T11:45:33.807Z,40640.00
2023-06-30T11:46:35.878Z,42688.00
2023-06-30T11:47:33.884Z,43936.00
2023-06-30T11:48:33.780Z,43584.00
2023-06-30T11:49:33.669Z,42752.00
2023-06-30T11:50:33.786Z,41696.00
2023-06-30T11:51:33.596Z,40096.00
2023-06-30T11:52:35.661Z,38112.00
2023-06-30T11:53:33.657Z,35904.00
2023-06-30T11:54:34.634Z,33440.00
2023-06-30T11:55:33.454Z,31392.00
2023-06-30T11:56:33.478Z,29632.00
2023-06-30T11:57:33.415Z,27648.00
2023-06-30T11:58:34.460Z,25984.00
2023-06-30T11:59:33.323Z,24320.00
2023-06-30T12:00:33.461Z,22560.00
2023-06-30T12:01:33.243Z,21152.00
2023-06-30T12:02:33.258Z,19776.00
2023-06-30T12:03:33.284Z,18304.00
2023-06-30T12:04:33.353Z,16808.00
2023-06-30T12:05:33.116Z,16040.00
2023-06-30T12:06:33.294Z,15808.00
2023-06-30T12:07:33.176Z,15840.00
2023-06-30T12:08:33.184Z,15928.00
2023-06-30T12:09:34.129Z,15992.00
2023-06-30T12:10:32.960Z,15948.00
2023-06-30T12:11:34.147Z,15960.00
2023-06-30T12:12:32.842Z,16128.00
2023-06-30T12:13:32.935Z,16304.00
2023-06-30T12:14:32.770Z,16456.00
2023-06-30T12:15:32.954Z,16732.00
2023-06-30T12:16:32.781Z,17376.00
2023-06-30T12:17:32.823Z,17952.00
2023-06-30T12:18:32.625Z,18432.00
2023-06-30T12:19:32.589Z,18816.00
2023-06-30T12:20:32.624Z,19328.00